ADDS METAR Data INFO
IDs: Format: Raw Decoded Include TAF

Data at: 2004 UTC 19 Oct 2017

KGUC 191956Z AUTO VRB03KT 10SM CLR 17/M09 A3015 RMK AO2 SLP179 T01721089
KGUC 191856Z AUTO 00000KT 10SM CLR 14/M12 A3021 RMK AO2 SLP203 T01391117
KGUC 191756Z AUTO 00000KT 10SM CLR 10/M10 A3026 RMK AO2 SLP231 T01001100 10100 21050 58020
KGUC 191656Z AUTO 00000KT 10SM CLR 06/M11 A3029 RMK AO2 SLP251 T00611111
KGUC 191556Z AUTO 00000KT 10SM CLR 02/M11 A3032 RMK AO2 SLP266 T00221111 FZRANO
KGUC 191456Z AUTO 10003KT 10SM CLR M02/M09 A3033 RMK AO2 SLP285 T10221094 53003 FZRANO
KGUC 191356Z AUTO 00000KT 9SM CLR M05/M09 A3032 RMK AO2 SLP275 T10501089 FZRANO
KGUC 191256Z AUTO 00000KT 10SM CLR M04/M11 A3032 RMK AO2 SLP268 T10441106 FZRANO
KGUC 191156Z AUTO 00000KT 10SM CLR M04/M11 A3032 RMK AO2 SLP251 T10441106 11006 21061 55002 FZRANO
KGUC 191056Z AUTO 10003KT 10SM CLR M05/M10 A3032 RMK AO2 SLP243 T10501100 FZRANO
KGUC 190956Z AUTO 00000KT 10SM CLR M04/M09 A3032 RMK AO2 SLP243 T10441094 FZRANO
KGUC 190856Z AUTO 00000KT 10SM CLR M03/M09 A3033 RMK AO2 SLP247 T10281089 53001 FZRANO
KGUC 190756Z AUTO 00000KT 10SM CLR M03/M09 A3033 RMK AO2 SLP255 T10281094 FZRANO
KGUC 190656Z AUTO 04004KT 10SM CLR M01/M11 A3032 RMK AO2 SLP256 T10061106 FZRANO
KGUC 190556Z AUTO 00000KT 10SM CLR M01/M08 A3033 RMK AO2 SLP272 T10061083 10150 21017 401781094 51006 FZRANO
KGUC 190456Z AUTO 36003KT 10SM CLR 02/M09 A3033 RMK AO2 SLP272 T00171089 FZRANO
KGUC 190356Z AUTO 00000KT 10SM CLR 03/M11 A3032 RMK AO2 SLP277 T00281106
KGUC 190256Z AUTO 00000KT 10SM CLR 03/M08 A3030 RMK AO2 SLP278 T00331078 51009
KGUC 190156Z AUTO 01004KT 10SM CLR 08/M09 A3030 RMK AO2 SLP278 T00781089
KGUC 190056Z AUTO 34010KT 10SM CLR 10/M09 A3027 RMK AO2 SLP257 T01001089
KGUC 182356Z AUTO 15005KT 10SM CLR 16/M11 A3027 RMK AO2 SLP242 T01561111 10178 20050 56013
KGUC 182256Z AUTO 22004KT 10SM CLR 18/M13 A3028 RMK AO2 SLP238 T01781128
KGUC 182156Z AUTO 00000KT 10SM CLR 17/M12 A3029 RMK AO2 SLP234 T01721117
KGUC 182056Z AUTO 29007KT 10SM CLR 16/M11 A3032 RMK AO2 SLP249 T01561106 58029
KGUC 181956Z AUTO 19003KT 10SM CLR 13/M12 A3035 RMK AO2 SLP272 T01281122
KGUC 181856Z AUTO 00000KT 10SM CLR 09/M12 A3040 RMK AO2 SLP289 T00941117
KGUC 181756Z AUTO VRB03KT 10SM CLR 05/M12 A3043 RMK AO2 SLP315 T00501122 10050 21094 58002
KGUC 181656Z AUTO 21003KT 10SM CLR 02/M12 A3043 RMK AO2 SLP315 T00221117 FZRANO
KGUC 181556Z AUTO 00000KT 10SM CLR M01/M11 A3045 RMK AO2 SLP323 T10061106 FZRANO
KGUC 181456Z AUTO 00000KT 10SM CLR M04/M12 A3043 RMK AO2 SLP317 T10391117 53009 FZRANO
KGUC 181356Z AUTO 00000KT 10SM CLR M08/M12 A3042 RMK AO2 SLP321 T10781122 FZRANO
KGUC 181256Z AUTO 34003KT 10SM CLR M07/M11 A3041 RMK AO2 SLP298 T10721111 FZRANO
KGUC 181156Z AUTO 00000KT 10SM CLR M08/M12 A3040 RMK AO2 SLP281 7//// T10781117 11017 21083 53004 FZRANO
KGUC 181056Z AUTO 00000KT 10SM CLR M08/M11 A3038 RMK AO2 SLP272 T10781111 FZRANO
KGUC 180956Z AUTO 00000KT 10SM CLR M04/M11 A3038 RMK AO2 SLP264 T10441111 FZRANO
KGUC 180856Z AUTO 00000KT 10SM CLR M05/M11 A3038 RMK AO2 SLP269 T10501111 53002 FZRANO